createdAt,value
2023-01-19T00:00:56.425Z,2.60
2023-01-19T00:03:23.429Z,2.60
2023-01-19T00:05:50.616Z,2.60
2023-01-19T00:08:17.754Z,2.60
2023-01-19T00:10:53.005Z,2.60
2023-01-19T00:13:20.077Z,2.60
2023-01-19T00:15:47.169Z,2.60
2023-01-19T00:18:14.274Z,2.60
2023-01-19T00:20:41.717Z,2.60
2023-01-19T00:23:09.463Z,2.60
2023-01-19T00:25:42.588Z,2.50
2023-01-19T00:28:15.505Z,2.50
2023-01-19T00:30:43.732Z,2.40
2023-01-19T00:33:15.333Z,2.40
2023-01-19T00:35:42.957Z,2.40
2023-01-19T00:38:13.924Z,2.30
2023-01-19T00:40:41.014Z,2.30
2023-01-19T00:43:08.087Z,2.30
2023-01-19T00:45:35.411Z,2.30
2023-01-19T00:48:02.421Z,2.20
2023-01-19T00:50:31.367Z,2.20
2023-01-19T00:53:01.490Z,2.10
2023-01-19T00:55:30.293Z,2.10
2023-01-19T00:57:57.919Z,2.10
2023-01-19T01:00:26.414Z,2.10
2023-01-19T01:02:54.419Z,2.10
2023-01-19T01:05:22.368Z,2.10
2023-01-19T01:07:50.625Z,2.10
2023-01-19T01:10:24.874Z,2.10
2023-01-19T01:12:56.219Z,2.10
2023-01-19T01:15:27.853Z,2.10
2023-01-19T01:17:55.665Z,2.00
2023-01-19T01:20:27.662Z,2.00
2023-01-19T01:22:56.322Z,2.00
2023-01-19T01:25:26.155Z,2.00
2023-01-19T01:27:54.464Z,2.00
2023-01-19T01:30:22.067Z,2.00
2023-01-19T01:32:50.058Z,2.00
2023-01-19T01:35:17.472Z,2.00
2023-01-19T01:37:44.628Z,2.00
2023-01-19T01:40:18.215Z,2.00
2023-01-19T01:42:45.889Z,2.00
2023-01-19T01:45:34.704Z,2.00
2023-01-19T01:48:28.723Z,2.00
2023-01-19T01:51:26.285Z,1.90
2023-01-19T01:54:18.072Z,2.00
2023-01-19T01:56:49.737Z,2.00
2023-01-19T01:59:29.788Z,1.90
2023-01-19T02:02:20.718Z,2.00
2023-01-19T02:04:53.715Z,1.90
2023-01-19T02:08:12.981Z,2.00
2023-01-19T02:11:02.008Z,2.00
2023-01-19T02:13:31.250Z,2.00
2023-01-19T02:16:03.084Z,2.00
2023-01-19T02:18:31.956Z,2.00
2023-01-19T02:21:13.872Z,2.00
2023-01-19T02:23:41.947Z,2.00
2023-01-19T02:26:14.293Z,2.00
2023-01-19T02:28:48.347Z,2.10
2023-01-19T02:31:15.478Z,2.00
2023-01-19T02:33:42.660Z,2.00
2023-01-19T02:36:13.554Z,2.00
2023-01-19T02:38:42.274Z,2.10
2023-01-19T02:41:13.302Z,2.10
2023-01-19T02:43:42.009Z,2.10
2023-01-19T02:46:09.329Z,2.10
2023-01-19T02:48:36.481Z,2.10
2023-01-19T02:51:33.527Z,2.10
2023-01-19T02:54:21.485Z,2.10
2023-01-19T02:57:01.503Z,2.10
2023-01-19T02:59:56.216Z,2.10
2023-01-19T03:03:13.160Z,2.10
2023-01-19T03:05:53.896Z,2.10
2023-01-19T03:08:53.213Z,2.20
2023-01-19T03:11:21.162Z,2.20
2023-01-19T03:13:57.887Z,2.20
2023-01-19T03:16:51.287Z,2.20
2023-01-19T03:19:23.939Z,2.20
2023-01-19T03:22:05.079Z,2.20
2023-01-19T03:24:38.563Z,2.10
2023-01-19T03:27:17.657Z,2.10
2023-01-19T03:29:52.285Z,2.10
2023-01-19T03:32:30.249Z,2.10
2023-01-19T03:35:02.867Z,2.00
2023-01-19T03:37:31.133Z,2.00
2023-01-19T03:39:58.397Z,1.90
2023-01-19T03:42:27.175Z,1.90
2023-01-19T03:44:56.542Z,1.80
2023-01-19T03:47:25.363Z,1.80
2023-01-19T03:49:54.125Z,1.80
2023-01-19T03:52:33.588Z,1.80
2023-01-19T03:55:04.559Z,1.80
2023-01-19T03:57:32.187Z,1.80
2023-01-19T03:59:59.145Z,1.80
2023-01-19T04:02:26.142Z,1.80
2023-01-19T04:04:53.235Z,1.80
2023-01-19T04:07:20.313Z,1.90
2023-01-19T04:09:47.526Z,1.80
2023-01-19T04:12:14.531Z,1.90
2023-01-19T04:14:41.866Z,1.90
2023-01-19T04:17:10.369Z,1.90
2023-01-19T04:19:37.706Z,1.90
2023-01-19T04:22:04.863Z,1.90
2023-01-19T04:24:31.831Z,1.90
2023-01-19T04:26:59.128Z,1.90
2023-01-19T04:29:26.317Z,1.80
2023-01-19T04:31:53.389Z,1.80
2023-01-19T04:34:20.366Z,1.80
2023-01-19T04:36:51.054Z,1.80
2023-01-19T04:39:18.220Z,1.80
2023-01-19T04:41:45.365Z,1.80
2023-01-19T04:44:12.430Z,1.80
2023-01-19T04:46:39.533Z,1.80
2023-01-19T04:49:06.550Z,1.80
2023-01-19T04:51:34.350Z,1.80
2023-01-19T04:54:02.232Z,1.80
2023-01-19T04:56:29.708Z,1.90
2023-01-19T04:58:56.749Z,1.90
2023-01-19T05:01:24.167Z,2.00
2023-01-19T05:03:51.427Z,2.00
2023-01-19T05:06:18.537Z,2.00
2023-01-19T05:08:45.627Z,2.10
2023-01-19T05:11:12.761Z,2.10
2023-01-19T05:13:39.775Z,2.10
2023-01-19T05:16:07.665Z,2.20
2023-01-19T05:18:36.965Z,2.20
2023-01-19T05:21:04.783Z,2.30
2023-01-19T05:23:32.772Z,2.30
2023-01-19T05:26:02.052Z,2.30
2023-01-19T05:28:30.512Z,2.40
2023-01-19T05:30:57.780Z,2.40
2023-01-19T05:33:25.629Z,2.40
2023-01-19T05:35:54.174Z,2.50
2023-01-19T05:38:34.381Z,2.60
2023-01-19T05:41:02.779Z,2.60
2023-01-19T05:43:29.895Z,2.70
2023-01-19T05:45:57.075Z,2.70
2023-01-19T05:48:24.179Z,2.70
2023-01-19T05:50:51.670Z,2.70
2023-01-19T05:53:18.731Z,2.70
2023-01-19T05:55:45.882Z,2.80
2023-01-19T05:58:13.027Z,2.80
2023-01-19T06:00:40.424Z,2.90
2023-01-19T06:03:07.737Z,2.90
2023-01-19T06:05:35.474Z,2.90
2023-01-19T06:08:02.504Z,2.90
2023-01-19T06:10:29.552Z,2.90
2023-01-19T06:12:56.878Z,3.00
2023-01-19T06:15:23.926Z,3.00
2023-01-19T06:17:51.013Z,2.90
2023-01-19T06:20:18.399Z,2.90
2023-01-19T06:22:45.646Z,2.80
2023-01-19T06:25:12.994Z,2.80
2023-01-19T06:27:44.919Z,2.70
2023-01-19T06:30:13.583Z,2.60
2023-01-19T06:32:41.154Z,2.60
2023-01-19T06:35:08.808Z,2.50
2023-01-19T06:37:36.666Z,2.40
2023-01-19T06:40:04.495Z,2.40
2023-01-19T06:42:31.592Z,2.40
2023-01-19T06:44:58.868Z,2.30
2023-01-19T06:47:26.013Z,2.30
2023-01-19T06:49:53.281Z,2.20
2023-01-19T06:52:20.697Z,2.20
2023-01-19T06:54:47.811Z,2.20
2023-01-19T06:57:17.239Z,2.30
2023-01-19T06:59:44.744Z,2.30
2023-01-19T07:02:27.416Z,2.30
2023-01-19T07:04:56.499Z,2.40
2023-01-19T07:07:23.568Z,2.50
2023-01-19T07:09:53.821Z,2.50
2023-01-19T07:12:22.423Z,2.50
2023-01-19T07:14:49.605Z,2.60
2023-01-19T07:17:16.729Z,2.80
2023-01-19T07:19:43.798Z,2.90
2023-01-19T07:22:10.903Z,3.00
2023-01-19T07:24:38.107Z,3.10
2023-01-19T07:27:05.479Z,3.10
2023-01-19T07:29:32.631Z,3.10
2023-01-19T07:31:59.633Z,3.10
2023-01-19T07:34:26.678Z,3.10
2023-01-19T07:36:53.923Z,3.00
2023-01-19T07:39:21.344Z,2.90
2023-01-19T07:41:49.141Z,2.90
2023-01-19T07:44:16.388Z,2.90
2023-01-19T07:46:43.416Z,2.90
2023-01-19T07:49:10.630Z,2.90
2023-01-19T07:51:37.657Z,2.90
2023-01-19T07:54:04.647Z,2.90
2023-01-19T07:56:33.884Z,2.90
2023-01-19T07:59:01.359Z,2.90
2023-01-19T08:01:29.599Z,2.90
2023-01-19T08:03:56.780Z,2.90
2023-01-19T08:06:30.144Z,2.90
2023-01-19T08:08:57.306Z,2.90
2023-01-19T08:11:24.363Z,2.80
2023-01-19T08:13:51.319Z,2.80
2023-01-19T08:16:19.006Z,2.80
2023-01-19T08:18:46.425Z,2.70
2023-01-19T08:21:13.457Z,2.70
2023-01-19T08:23:40.479Z,2.60
2023-01-19T08:26:33.364Z,2.60
2023-01-19T08:29:04.152Z,2.60
2023-01-19T08:31:31.587Z,2.60
2023-01-19T08:33:59.103Z,2.60
2023-01-19T08:36:26.972Z,2.60
2023-01-19T08:38:54.029Z,2.60
2023-01-19T08:41:22.034Z,2.60
2023-01-19T08:43:49.892Z,2.60
2023-01-19T08:46:18.492Z,2.70
2023-01-19T08:48:45.614Z,2.70
2023-01-19T08:51:12.920Z,2.70
2023-01-19T08:53:41.386Z,2.80
2023-01-19T08:56:13.645Z,2.90
2023-01-19T08:58:42.988Z,2.90
2023-01-19T09:01:17.015Z,2.90
2023-01-19T09:03:44.621Z,3.00
2023-01-19T09:06:16.887Z,3.00
2023-01-19T09:08:44.419Z,3.00
2023-01-19T09:11:14.712Z,3.00
2023-01-19T09:13:42.187Z,3.00
2023-01-19T09:16:12.605Z,3.00
2023-01-19T09:18:40.147Z,3.00
2023-01-19T09:21:08.213Z,3.00
2023-01-19T09:23:35.705Z,3.00
2023-01-19T09:26:04.936Z,3.00
2023-01-19T09:28:32.784Z,3.00
2023-01-19T09:31:00.028Z,3.00
2023-01-19T09:33:27.703Z,2.90
2023-01-19T09:35:55.364Z,2.90
2023-01-19T09:38:23.343Z,2.90
2023-01-19T09:40:54.701Z,2.90
2023-01-19T09:43:36.792Z,2.80
2023-01-19T09:46:13.134Z,2.90
2023-01-19T09:49:05.070Z,2.90
2023-01-19T09:51:38.462Z,2.90
2023-01-19T09:54:29.428Z,3.00
2023-01-19T09:56:56.642Z,3.10
2023-01-19T09:59:27.187Z,3.20
2023-01-19T10:02:34.100Z,3.30
2023-01-19T10:05:27.191Z,3.40
2023-01-19T10:08:08.645Z,3.50
2023-01-19T10:10:37.707Z,3.60
2023-01-19T10:13:20.515Z,3.70
2023-01-19T10:16:26.336Z,3.80
2023-01-19T10:18:59.451Z,4.00
2023-01-19T10:21:42.224Z,4.10
2023-01-19T10:24:26.026Z,4.20
2023-01-19T10:26:56.887Z,4.30
2023-01-19T10:29:37.900Z,4.40
2023-01-19T10:32:35.694Z,4.50
2023-01-19T10:35:24.295Z,4.70
2023-01-19T10:37:56.138Z,4.80
2023-01-19T10:40:33.607Z,4.90
2023-01-19T10:43:01.132Z,5.10
2023-01-19T10:45:31.472Z,5.20
2023-01-19T10:48:06.028Z,5.20
2023-01-19T10:50:37.416Z,5.30
2023-01-19T10:53:06.866Z,5.40
2023-01-19T10:55:40.502Z,5.50
2023-01-19T10:58:31.136Z,5.60
2023-01-19T11:01:23.168Z,5.60
2023-01-19T11:03:51.424Z,5.70
2023-01-19T11:06:30.080Z,5.80
2023-01-19T11:09:19.812Z,5.80
2023-01-19T11:11:52.644Z,5.80
2023-01-19T11:14:24.880Z,5.90
2023-01-19T11:16:55.554Z,5.90
2023-01-19T11:19:30.348Z,6.00
2023-01-19T11:22:22.298Z,6.00
2023-01-19T11:24:50.216Z,6.10
2023-01-19T11:27:20.429Z,6.10
2023-01-19T11:29:59.054Z,6.20
2023-01-19T11:32:28.029Z,6.20
2023-01-19T11:34:55.102Z,6.20
2023-01-19T11:37:31.712Z,6.20
2023-01-19T11:40:02.860Z,6.30
2023-01-19T11:42:34.183Z,6.30
2023-01-19T11:45:15.333Z,6.40
2023-01-19T11:47:52.416Z,6.40
2023-01-19T11:50:46.694Z,6.40
2023-01-19T11:53:26.801Z,6.40
2023-01-19T11:56:06.967Z,6.40
2023-01-19T11:58:39.824Z,6.50
2023-01-19T12:01:34.208Z,6.50
2023-01-19T12:04:11.499Z,6.60
2023-01-19T12:06:44.493Z,6.70
2023-01-19T12:09:21.510Z,6.70
2023-01-19T12:11:56.640Z,6.70
2023-01-19T12:14:36.879Z,6.80
2023-01-19T12:17:07.766Z,6.70
2023-01-19T12:20:07.178Z,6.80
2023-01-19T12:22:50.125Z,6.70
2023-01-19T12:25:26.259Z,6.30
2023-01-19T12:27:53.874Z,6.10
2023-01-19T12:30:28.536Z,5.80
2023-01-19T12:33:21.574Z,5.60
2023-01-19T12:36:17.025Z,5.50
2023-01-19T12:38:56.627Z,5.50
2023-01-19T12:41:36.508Z,5.40
2023-01-19T12:44:14.060Z,5.30
2023-01-19T12:46:45.982Z,5.10
2023-01-19T12:49:23.930Z,5.10
2023-01-19T12:51:55.261Z,5.30
2023-01-19T12:54:31.533Z,5.40
2023-01-19T12:57:34.273Z,5.30
2023-01-19T13:00:22.490Z,5.30
2023-01-19T13:02:55.306Z,5.20
2023-01-19T13:05:53.253Z,5.20
2023-01-19T13:08:52.846Z,5.40
2023-01-19T13:11:21.030Z,5.50
2023-01-19T13:13:48.134Z,5.60
2023-01-19T13:16:22.384Z,5.80
2023-01-19T13:19:14.908Z,5.90
2023-01-19T13:21:48.301Z,6.10
2023-01-19T13:24:25.036Z,6.30
2023-01-19T13:26:52.096Z,6.40
2023-01-19T13:29:36.130Z,6.40
2023-01-19T13:32:18.907Z,6.30
2023-01-19T13:34:53.338Z,6.20
2023-01-19T13:37:46.897Z,5.90
2023-01-19T13:40:22.883Z,5.80
2023-01-19T13:42:53.147Z,5.70
2023-01-19T13:45:37.901Z,5.80
2023-01-19T13:48:08.974Z,5.80
2023-01-19T13:50:39.275Z,5.90
2023-01-19T13:53:21.225Z,5.90
2023-01-19T13:55:48.541Z,5.80
2023-01-19T13:58:23.957Z,5.60
2023-01-19T14:00:51.103Z,5.60
2023-01-19T14:03:24.373Z,5.50
2023-01-19T14:05:55.426Z,5.50
2023-01-19T14:08:25.629Z,5.40
2023-01-19T14:10:56.300Z,5.30
2023-01-19T14:13:33.314Z,5.20
2023-01-19T14:16:07.312Z,5.30
2023-01-19T14:18:36.478Z,5.40
2023-01-19T14:21:07.889Z,5.40
2023-01-19T14:23:57.587Z,5.40
2023-01-19T14:26:54.799Z,5.40
2023-01-19T14:29:26.133Z,5.30
2023-01-19T14:32:13.702Z,5.40
2023-01-19T14:34:46.918Z,5.30
2023-01-19T14:37:27.292Z,5.20
2023-01-19T14:40:11.204Z,5.10
2023-01-19T14:42:57.339Z,5.00
2023-01-19T14:45:35.942Z,4.90
2023-01-19T14:48:15.260Z,4.70
2023-01-19T14:50:54.139Z,4.70
2023-01-19T14:53:33.791Z,4.60
2023-01-19T14:56:04.984Z,4.50
2023-01-19T14:58:35.256Z,4.40
2023-01-19T15:01:03.840Z,4.40
2023-01-19T15:03:44.777Z,4.30
2023-01-19T15:06:21.761Z,4.20
2023-01-19T15:08:50.244Z,4.10
2023-01-19T15:11:27.573Z,4.10
2023-01-19T15:13:55.495Z,4.10
2023-01-19T15:16:24.931Z,4.00
2023-01-19T15:18:52.319Z,4.00
2023-01-19T15:21:26.450Z,3.90
2023-01-19T15:23:54.567Z,3.90
2023-01-19T15:26:26.461Z,3.80
2023-01-19T15:28:55.801Z,3.70
2023-01-19T15:31:26.002Z,3.70
2023-01-19T15:33:53.164Z,3.60
2023-01-19T15:36:22.180Z,3.60
2023-01-19T15:38:51.005Z,3.60
2023-01-19T15:41:27.942Z,3.50
2023-01-19T15:43:54.958Z,3.50
2023-01-19T15:46:25.150Z,3.50
2023-01-19T15:48:53.511Z,3.50
2023-01-19T15:51:25.453Z,3.50
2023-01-19T15:53:54.411Z,3.50
2023-01-19T15:56:27.336Z,3.40
2023-01-19T15:58:55.099Z,3.40
2023-01-19T16:01:31.429Z,3.40
2023-01-19T16:04:04.738Z,3.30
2023-01-19T16:06:32.831Z,3.30
2023-01-19T16:09:01.336Z,3.30
2023-01-19T16:11:32.144Z,3.30
2023-01-19T16:13:59.774Z,3.30
2023-01-19T16:16:28.131Z,3.30
2023-01-19T16:18:55.839Z,3.20
2023-01-19T16:21:23.728Z,3.20
2023-01-19T16:23:51.124Z,3.10
2023-01-19T16:26:30.445Z,3.10
2023-01-19T16:29:10.751Z,3.00
2023-01-19T16:31:42.513Z,3.00
2023-01-19T16:34:10.240Z,2.90
2023-01-19T16:36:52.383Z,2.80
2023-01-19T16:39:19.536Z,2.70
2023-01-19T16:41:47.036Z,2.70
2023-01-19T16:44:16.396Z,2.60
2023-01-19T16:46:46.506Z,2.50
2023-01-19T16:49:17.233Z,2.50
2023-01-19T16:51:44.898Z,2.40
2023-01-19T16:54:15.474Z,2.30
2023-01-19T16:56:42.948Z,2.20
2023-01-19T16:59:13.403Z,2.20
2023-01-19T17:01:41.375Z,2.10
2023-01-19T17:04:08.708Z,2.00
2023-01-19T17:06:35.825Z,2.00
2023-01-19T17:09:03.448Z,2.00
2023-01-19T17:11:32.559Z,2.00
2023-01-19T17:14:12.065Z,2.00
2023-01-19T17:16:39.843Z,2.00
2023-01-19T17:19:08.145Z,2.00
2023-01-19T17:21:35.974Z,2.10
2023-01-19T17:24:03.231Z,2.10
2023-01-19T17:26:33.840Z,2.10
2023-01-19T17:29:03.653Z,2.10
2023-01-19T17:31:32.155Z,2.20
2023-01-19T17:34:00.675Z,2.10
2023-01-19T17:36:30.386Z,2.00
2023-01-19T17:39:00.862Z,1.90
2023-01-19T17:41:34.942Z,1.90
2023-01-19T17:44:04.466Z,1.90
2023-01-19T17:46:35.668Z,1.80
2023-01-19T17:49:05.767Z,1.70
2023-01-19T17:51:33.205Z,1.70
2023-01-19T17:54:00.452Z,1.60
2023-01-19T17:56:30.276Z,1.50
2023-01-19T17:58:58.323Z,1.50
2023-01-19T18:01:29.031Z,1.50
2023-01-19T18:03:57.299Z,1.40
2023-01-19T18:06:24.895Z,1.40
2023-01-19T18:08:52.546Z,1.40
2023-01-19T18:11:20.952Z,1.30
2023-01-19T18:13:50.616Z,1.30
2023-01-19T18:16:25.755Z,1.20
2023-01-19T18:18:54.883Z,1.20
2023-01-19T18:21:23.559Z,1.10
2023-01-19T18:23:51.588Z,1.10
2023-01-19T18:26:22.593Z,1.10
2023-01-19T18:28:50.281Z,1.00
2023-01-19T18:31:19.128Z,1.00
2023-01-19T18:33:48.572Z,1.00
2023-01-19T18:36:16.468Z,0.90
2023-01-19T18:38:44.259Z,0.90
2023-01-19T18:41:15.169Z,0.90
2023-01-19T18:43:43.295Z,0.80
2023-01-19T18:46:11.115Z,0.80
2023-01-19T18:48:39.289Z,0.80
2023-01-19T18:51:13.647Z,0.80
2023-01-19T18:53:41.385Z,0.80
2023-01-19T18:56:11.872Z,0.80
2023-01-19T18:58:39.483Z,0.80
2023-01-19T19:01:33.235Z,0.80
2023-01-19T19:04:00.995Z,0.70
2023-01-19T19:06:28.787Z,0.70
2023-01-19T19:08:59.205Z,0.70
2023-01-19T19:11:27.823Z,0.70
2023-01-19T19:14:01.708Z,0.70
2023-01-19T19:16:29.950Z,0.60
2023-01-19T19:18:57.387Z,0.70
2023-01-19T19:21:25.505Z,0.70
2023-01-19T19:23:56.241Z,0.70
2023-01-19T19:26:25.359Z,0.60
2023-01-19T19:28:52.632Z,0.70
2023-01-19T19:31:22.447Z,0.70
2023-01-19T19:33:51.102Z,0.70
2023-01-19T19:36:20.443Z,0.60
2023-01-19T19:38:48.934Z,0.60
2023-01-19T19:41:20.744Z,0.50
2023-01-19T19:43:48.294Z,0.50
2023-01-19T19:46:19.909Z,0.40
2023-01-19T19:48:48.546Z,0.40
2023-01-19T19:51:22.774Z,0.30
2023-01-19T19:53:51.816Z,0.30
2023-01-19T19:56:22.642Z,0.30
2023-01-19T19:58:51.572Z,0.40
2023-01-19T20:01:24.072Z,0.30
2023-01-19T20:03:52.375Z,0.30
2023-01-19T20:06:22.894Z,0.30
2023-01-19T20:08:52.731Z,0.20
2023-01-19T20:11:26.928Z,0.20
2023-01-19T20:13:54.667Z,0.20
2023-01-19T20:16:23.343Z,0.20
2023-01-19T20:18:54.150Z,0.20
2023-01-19T20:21:30.096Z,0.10
2023-01-19T20:24:01.710Z,0.10
2023-01-19T20:26:35.914Z,0.10
2023-01-19T20:29:10.251Z,0.10
2023-01-19T20:31:43.521Z,0.10
2023-01-19T20:34:12.228Z,0.10
2023-01-19T20:36:41.134Z,0.00
2023-01-19T20:39:10.355Z,-0.10
2023-01-19T20:41:43.486Z,-0.20
2023-01-19T20:44:18.840Z,-0.10
2023-01-19T20:46:47.090Z,-0.20
2023-01-19T20:49:14.634Z,-0.20
2023-01-19T20:51:45.069Z,-0.30
2023-01-19T20:54:14.525Z,-0.30
2023-01-19T20:56:41.891Z,-0.30
2023-01-19T20:59:11.084Z,-0.30
2023-01-19T21:01:40.238Z,-0.30
2023-01-19T21:04:08.011Z,-0.30
2023-01-19T21:06:35.584Z,-0.30
2023-01-19T21:09:03.328Z,-0.30
2023-01-19T21:11:30.923Z,-0.30
2023-01-19T21:13:58.179Z,-0.30
2023-01-19T21:16:29.777Z,-0.30
2023-01-19T21:18:57.335Z,-0.30
2023-01-19T21:21:30.822Z,-0.30
2023-01-19T21:24:03.352Z,-0.30
2023-01-19T21:26:31.409Z,-0.30
2023-01-19T21:29:00.438Z,-0.30
2023-01-19T21:31:28.650Z,-0.20
2023-01-19T21:33:57.698Z,-0.20
2023-01-19T21:36:25.558Z,-0.30
2023-01-19T21:38:53.105Z,-0.30
2023-01-19T21:41:20.429Z,-0.40
2023-01-19T21:43:47.634Z,-0.40
2023-01-19T21:46:19.554Z,-0.50
2023-01-19T21:48:47.209Z,-0.50
2023-01-19T21:51:15.578Z,-0.50
2023-01-19T21:53:43.941Z,-0.60
2023-01-19T21:56:11.570Z,-0.50
2023-01-19T21:58:39.005Z,-0.60
2023-01-19T22:01:13.662Z,-0.60
2023-01-19T22:03:42.254Z,-0.70
2023-01-19T22:06:12.439Z,-0.70
2023-01-19T22:08:40.366Z,-0.70
2023-01-19T22:11:10.773Z,-0.80
2023-01-19T22:13:38.792Z,-0.80
2023-01-19T22:16:13.460Z,-0.80
2023-01-19T22:18:43.620Z,-0.80
2023-01-19T22:21:15.014Z,-0.80
2023-01-19T22:23:42.922Z,-0.80
2023-01-19T22:26:11.585Z,-0.90
2023-01-19T22:28:39.105Z,-0.90
2023-01-19T22:31:08.893Z,-0.90
2023-01-19T22:33:36.798Z,-1.00
2023-01-19T22:36:20.135Z,-0.90
2023-01-19T22:39:02.616Z,-0.90
2023-01-19T22:41:36.094Z,-0.80
2023-01-19T22:44:07.423Z,-0.80
2023-01-19T22:46:36.697Z,-0.80
2023-01-19T22:49:07.403Z,-0.80
2023-01-19T22:51:35.946Z,-0.80
2023-01-19T22:54:03.536Z,-0.80
2023-01-19T22:56:33.527Z,-0.80
2023-01-19T22:59:00.836Z,-0.90
2023-01-19T23:01:33.748Z,-0.80
2023-01-19T23:04:04.255Z,-0.80
2023-01-19T23:06:35.294Z,-0.80
2023-01-19T23:09:15.161Z,-0.80
2023-01-19T23:11:45.562Z,-0.90
2023-01-19T23:14:16.325Z,-0.80
2023-01-19T23:16:43.562Z,-0.90
2023-01-19T23:19:12.694Z,-0.80
2023-01-19T23:21:40.857Z,-0.80
2023-01-19T23:24:08.403Z,-0.80
2023-01-19T23:26:39.075Z,-0.80
2023-01-19T23:29:11.479Z,-0.80
2023-01-19T23:31:42.601Z,-0.70
2023-01-19T23:34:11.166Z,-0.70
2023-01-19T23:36:40.938Z,-0.60
2023-01-19T23:39:18.416Z,-0.60
2023-01-19T23:41:45.889Z,-0.60
2023-01-19T23:44:13.040Z,-0.70
2023-01-19T23:46:40.164Z,-0.70
2023-01-19T23:49:07.240Z,-0.70
2023-01-19T23:51:34.859Z,-0.70
2023-01-19T23:54:02.060Z,-0.80
2023-01-19T23:56:33.535Z,-0.80
2023-01-19T23:59:08.211Z,-0.80
